Terminal Aerodrome Forecast
Issued by NWS Sioux Falls, SD

Home | Current Version | Previous Version | Graphics & Text | Print | Product List | Glossary Off
Versions: 1 2 3 4 5 6 7 8 9 10 11 12 13 14

000
FTUS43 KFSD 180500
TAFSUX
TAF
KSUX 180522Z 1806/1906 10006KT P6SM SCT110
     FM180900 13010KT P6SM SCT120
     FM181500 16013G19KT P6SM BKN100
     FM181800 16022G28KT P6SM SCT250
     FM190100 15014KT P6SM SCT250=

USA.gov is the U.S. government's official web portal to all federal, state and local government web resources and services.